createdAt,value
2023-03-28T00:02:16.563Z,2.40
2023-03-28T00:07:20.655Z,3.10
2023-03-28T00:12:23.488Z,3.28
2023-03-28T00:17:25.634Z,2.80
2023-03-28T00:22:30.503Z,2.83
2023-03-28T00:27:33.526Z,2.58
2023-03-28T00:32:36.151Z,3.00
2023-03-28T00:37:38.208Z,3.58
2023-03-28T00:42:43.341Z,3.08
2023-03-28T00:47:51.661Z,3.60
2023-03-28T00:53:14.156Z,3.25
2023-03-28T00:58:26.615Z,2.95
2023-03-28T01:03:34.996Z,3.33
2023-03-28T01:08:43.777Z,3.13
2023-03-28T01:13:49.244Z,3.10
2023-03-28T01:18:52.705Z,3.08
2023-03-28T01:24:16.789Z,3.72
2023-03-28T01:29:34.034Z,3.53
2023-03-28T01:34:56.894Z,3.17
2023-03-28T01:40:21.222Z,3.28
2023-03-28T01:45:44.329Z,3.15
2023-03-28T01:51:00.225Z,3.78
2023-03-28T01:56:04.879Z,3.28
2023-03-28T02:01:23.000Z,3.70
2023-03-28T02:06:27.205Z,3.10
2023-03-28T02:11:31.853Z,2.80
2023-03-28T02:17:04.543Z,3.00
2023-03-28T02:22:22.786Z,2.88
2023-03-28T02:27:56.712Z,3.15
2023-03-28T02:33:33.198Z,2.75
2023-03-28T02:38:43.375Z,3.05
2023-03-28T02:44:08.989Z,2.85
2023-03-28T02:49:43.831Z,2.92
2023-03-28T02:55:01.374Z,3.30
2023-03-28T03:00:20.295Z,3.13
2023-03-28T03:05:22.401Z,2.58
2023-03-28T03:10:24.714Z,3.03
2023-03-28T03:15:30.651Z,3.42
2023-03-28T03:20:33.802Z,3.20
2023-03-28T03:25:37.708Z,3.40
2023-03-28T03:30:57.691Z,3.90
2023-03-28T03:36:18.857Z,3.58
2023-03-28T03:41:21.404Z,3.70
2023-03-28T03:46:24.345Z,4.05
2023-03-28T03:51:28.981Z,4.32
2023-03-28T03:56:32.980Z,3.83
2023-03-28T04:01:39.310Z,4.32
2023-03-28T04:07:02.376Z,4.18
2023-03-28T04:12:06.110Z,4.47
2023-03-28T04:17:21.293Z,4.47
2023-03-28T04:22:29.799Z,6.22
2023-03-28T04:27:32.472Z,5.53
2023-03-28T04:32:36.161Z,5.18
2023-03-28T04:37:47.276Z,6.07
2023-03-28T04:42:49.477Z,5.95
2023-03-28T04:47:55.500Z,5.78
2023-03-28T04:52:58.425Z,6.80
2023-03-28T04:58:01.095Z,7.10
2023-03-28T05:03:04.957Z,7.45
2023-03-28T05:08:15.369Z,6.90
2023-03-28T05:13:18.227Z,6.95
2023-03-28T05:18:33.482Z,7.70
2023-03-28T05:23:36.125Z,7.70
2023-03-28T05:28:46.563Z,9.05
2023-03-28T05:33:50.399Z,8.57
2023-03-28T05:39:05.057Z,8.30
2023-03-28T05:44:08.106Z,8.88
2023-03-28T05:49:30.038Z,9.32
2023-03-28T05:54:32.218Z,9.00
2023-03-28T05:59:34.416Z,9.20
2023-03-28T06:04:36.557Z,9.85
2023-03-28T06:09:40.352Z,10.30
2023-03-28T06:14:44.253Z,10.57
2023-03-28T06:19:57.582Z,10.07
2023-03-28T06:24:59.820Z,10.13
2023-03-28T06:30:05.672Z,10.88
2023-03-28T06:35:15.653Z,10.88
2023-03-28T06:40:17.974Z,11.57
2023-03-28T06:45:20.197Z,12.35
2023-03-28T06:50:31.960Z,11.52
2023-03-28T06:55:43.310Z,12.20
2023-03-28T07:00:45.990Z,11.25
2023-03-28T07:06:12.563Z,11.55
2023-03-28T07:11:14.960Z,12.23
2023-03-28T07:16:20.881Z,12.07
2023-03-28T07:21:24.361Z,11.57
2023-03-28T07:26:31.271Z,10.63
2023-03-28T07:31:33.524Z,10.30
2023-03-28T07:36:35.941Z,10.65
2023-03-28T07:41:46.277Z,10.23
2023-03-28T07:46:48.393Z,9.73
2023-03-28T07:51:52.554Z,8.07
2023-03-28T07:56:54.988Z,7.47
2023-03-28T08:02:16.128Z,6.85
2023-03-28T08:07:18.847Z,6.47
2023-03-28T08:12:21.620Z,6.93
2023-03-28T08:17:23.859Z,6.40
2023-03-28T08:22:27.821Z,6.40
2023-03-28T08:27:41.393Z,6.55
2023-03-28T08:32:49.115Z,6.05
2023-03-28T08:37:52.199Z,5.68
2023-03-28T08:43:26.629Z,5.60
2023-03-28T08:48:39.660Z,4.65
2023-03-28T08:53:46.016Z,3.72
2023-03-28T08:59:15.978Z,4.15
2023-03-28T09:04:28.244Z,4.63
2023-03-28T09:10:13.959Z,4.45
2023-03-28T09:16:21.261Z,3.80
2023-03-28T09:21:51.930Z,3.97
2023-03-28T09:27:14.144Z,3.55
2023-03-28T09:32:27.951Z,3.20
2023-03-28T09:37:41.494Z,3.50
2023-03-28T09:42:49.909Z,3.40
2023-03-28T09:47:52.432Z,2.88
2023-03-28T09:52:58.907Z,2.60
2023-03-28T09:58:04.256Z,2.70
2023-03-28T10:03:35.718Z,3.15
2023-03-28T10:08:42.681Z,2.60
2023-03-28T10:13:59.331Z,2.85
2023-03-28T10:19:02.153Z,2.53
2023-03-28T10:24:21.993Z,3.10
2023-03-28T10:29:36.975Z,2.50
2023-03-28T10:34:39.569Z,2.67
2023-03-28T10:40:25.200Z,2.45
2023-03-28T10:45:54.180Z,2.20
2023-03-28T10:51:19.440Z,2.40
2023-03-28T10:56:33.659Z,1.70
2023-03-28T11:01:57.671Z,2.47
2023-03-28T11:07:22.767Z,2.50
2023-03-28T11:13:22.325Z,2.28
2023-03-28T11:18:34.117Z,2.40
2023-03-28T11:24:19.027Z,2.40
2023-03-28T11:29:46.685Z,2.42
2023-03-28T11:35:13.030Z,2.70
2023-03-28T11:40:56.597Z,2.30
2023-03-28T11:46:21.583Z,2.28
2023-03-28T11:51:34.156Z,1.95
2023-03-28T11:57:01.076Z,2.60
2023-03-28T12:02:39.932Z,2.25
2023-03-28T12:07:59.138Z,2.42
2023-03-28T12:13:10.348Z,2.33
2023-03-28T12:18:41.234Z,2.45
2023-03-28T12:23:51.858Z,2.70
2023-03-28T12:29:20.501Z,2.40
2023-03-28T12:34:37.184Z,2.10
2023-03-28T12:40:12.953Z,2.53
2023-03-28T12:45:28.168Z,2.70
2023-03-28T12:50:37.044Z,2.65
2023-03-28T12:55:46.072Z,2.30
2023-03-28T13:01:08.854Z,2.45
2023-03-28T13:06:29.151Z,2.23
2023-03-28T13:12:07.540Z,2.22
2023-03-28T13:17:39.132Z,2.40
2023-03-28T13:22:58.126Z,2.35
2023-03-28T13:28:34.223Z,2.30
2023-03-28T13:33:42.892Z,2.17
2023-03-28T13:39:10.915Z,2.53
2023-03-28T13:44:22.625Z,2.22
2023-03-28T13:49:44.834Z,2.67
2023-03-28T13:54:53.967Z,2.08
2023-03-28T13:59:59.646Z,2.20
2023-03-28T14:05:13.698Z,2.65
2023-03-28T14:10:33.877Z,2.70
2023-03-28T14:15:41.794Z,2.58
2023-03-28T14:20:46.302Z,2.90
2023-03-28T14:25:48.955Z,2.55
2023-03-28T14:30:51.039Z,2.88
2023-03-28T14:36:01.582Z,2.90
2023-03-28T14:41:13.655Z,2.78
2023-03-28T14:46:17.072Z,2.60
2023-03-28T14:51:21.602Z,2.97
2023-03-28T14:56:28.233Z,2.65
2023-03-28T15:01:33.946Z,2.38
2023-03-28T15:06:36.800Z,2.40
2023-03-28T15:11:43.426Z,2.60
2023-03-28T15:16:46.875Z,2.60
2023-03-28T15:22:02.425Z,3.47
2023-03-28T15:27:07.413Z,2.70
2023-03-28T15:32:16.921Z,2.88
2023-03-28T15:37:21.682Z,3.00
2023-03-28T15:42:34.585Z,2.75
2023-03-28T15:47:37.196Z,3.10
2023-03-28T15:52:42.446Z,2.88
2023-03-28T15:57:47.330Z,3.15
2023-03-28T16:02:49.446Z,3.78
2023-03-28T16:07:51.580Z,3.55
2023-03-28T16:12:53.637Z,3.80
2023-03-28T16:18:14.165Z,3.60
2023-03-28T16:23:24.440Z,3.63
2023-03-28T16:28:27.110Z,3.90
2023-03-28T16:33:29.384Z,3.47
2023-03-28T16:38:31.439Z,4.38
2023-03-28T16:43:33.563Z,3.65
2023-03-28T16:48:36.449Z,4.20
2023-03-28T16:53:39.703Z,3.72
2023-03-28T16:58:42.683Z,3.65
2023-03-28T17:03:48.873Z,3.97
2023-03-28T17:08:53.201Z,3.25
2023-03-28T17:13:55.540Z,4.72
2023-03-28T17:18:57.865Z,4.00
2023-03-28T17:23:59.864Z,4.63
2023-03-28T17:29:05.408Z,4.45
2023-03-28T17:34:09.776Z,7.35
2023-03-28T17:39:12.432Z,5.00
2023-03-28T17:44:14.695Z,4.18
2023-03-28T17:49:18.346Z,4.55
2023-03-28T17:54:20.584Z,4.18
2023-03-28T17:59:23.415Z,4.00
2023-03-28T18:04:25.829Z,3.58
2023-03-28T18:09:50.760Z,3.42
2023-03-28T18:14:52.816Z,3.22
2023-03-28T18:19:55.372Z,2.50
2023-03-28T18:24:57.690Z,2.60
2023-03-28T18:30:04.811Z,3.95
2023-03-28T18:35:07.406Z,4.75
2023-03-28T18:40:11.168Z,3.83
2023-03-28T18:45:13.561Z,2.45
2023-03-28T18:50:15.900Z,3.42
2023-03-28T18:55:18.708Z,3.00
2023-03-28T19:00:21.664Z,2.58
2023-03-28T19:05:24.505Z,2.85
2023-03-28T19:10:27.046Z,3.65
2023-03-28T19:15:29.158Z,2.92
2023-03-28T19:20:31.641Z,3.47
2023-03-28T19:25:33.717Z,3.40
2023-03-28T19:30:38.865Z,3.05
2023-03-28T19:35:42.269Z,3.22
2023-03-28T19:40:44.402Z,3.30
2023-03-28T19:45:46.628Z,3.00
2023-03-28T19:50:50.239Z,2.47
2023-03-28T19:55:54.035Z,2.63
2023-03-28T20:00:56.876Z,2.50
2023-03-28T20:06:04.741Z,2.80
2023-03-28T20:11:11.905Z,2.58
2023-03-28T20:16:14.734Z,2.85
2023-03-28T20:21:17.015Z,3.20
2023-03-28T20:26:21.968Z,3.13
2023-03-28T20:31:24.113Z,2.60
2023-03-28T20:36:27.260Z,2.60
2023-03-28T20:41:30.011Z,2.60
2023-03-28T20:46:34.336Z,2.70
2023-03-28T20:51:39.257Z,3.20
2023-03-28T20:56:42.585Z,3.10
2023-03-28T21:01:47.728Z,3.15
2023-03-28T21:06:49.985Z,3.30
2023-03-28T21:11:52.746Z,3.13
2023-03-28T21:16:57.776Z,2.92
2023-03-28T21:22:00.928Z,2.13
2023-03-28T21:27:03.348Z,2.60
2023-03-28T21:32:06.054Z,2.33
2023-03-28T21:37:08.044Z,2.65
2023-03-28T21:42:10.141Z,2.53
2023-03-28T21:47:13.073Z,2.30
2023-03-28T21:52:15.487Z,2.58
2023-03-28T21:57:17.656Z,2.60
2023-03-28T22:02:19.760Z,2.85
2023-03-28T22:07:21.797Z,2.60
2023-03-28T22:12:23.782Z,2.80
2023-03-28T22:17:26.515Z,3.00
2023-03-28T22:22:29.705Z,3.10
2023-03-28T22:27:31.716Z,2.75
2023-03-28T22:32:34.207Z,3.13
2023-03-28T22:37:36.260Z,3.42
2023-03-28T22:42:38.662Z,3.28
2023-03-28T22:47:40.845Z,3.53
2023-03-28T22:52:42.953Z,3.30
2023-03-28T22:57:45.487Z,3.80
2023-03-28T23:02:47.881Z,3.95
2023-03-28T23:07:50.612Z,3.58
2023-03-28T23:12:53.048Z,3.55
2023-03-28T23:17:55.813Z,3.50
2023-03-28T23:22:58.116Z,3.58
2023-03-28T23:28:00.431Z,3.10
2023-03-28T23:33:02.733Z,3.15
2023-03-28T23:38:05.006Z,2.80
2023-03-28T23:43:07.540Z,2.90
2023-03-28T23:48:09.951Z,2.58
2023-03-28T23:53:11.955Z,2.55
2023-03-28T23:58:14.285Z,2.72
